sensor_id;sensor_type;location;lat;lon;timestamp;temperature;humidity
20650;DHT22;10484;48.736;9.332;2024-03-02T00:01:07;5.90;19.50
20650;DHT22;10484;48.736;9.332;2024-03-02T00:03:33;5.90;20.00
20650;DHT22;10484;48.736;9.332;2024-03-02T00:05:59;5.90;20.60
20650;DHT22;10484;48.736;9.332;2024-03-02T00:08:25;5.90;20.40
20650;DHT22;10484;48.736;9.332;2024-03-02T00:11:00;5.90;20.50
20650;DHT22;10484;48.736;9.332;2024-03-02T00:13:29;5.80;20.90
20650;DHT22;10484;48.736;9.332;2024-03-02T00:15:56;5.90;20.90
20650;DHT22;10484;48.736;9.332;2024-03-02T00:18:35;5.90;21.10
20650;DHT22;10484;48.736;9.332;2024-03-02T00:21:01;5.80;21.20
20650;DHT22;10484;48.736;9.332;2024-03-02T00:23:30;5.80;22.10
20650;DHT22;10484;48.736;9.332;2024-03-02T00:25:57;5.80;22.30
20650;DHT22;10484;48.736;9.332;2024-03-02T00:28:29;5.70;23.50
20650;DHT22;10484;48.736;9.332;2024-03-02T00:33:27;5.70;25.60
20650;DHT22;10484;48.736;9.332;2024-03-02T00:35:56;5.70;25.50
20650;DHT22;10484;48.736;9.332;2024-03-02T00:38:22;5.70;25.50
20650;DHT22;10484;48.736;9.332;2024-03-02T00:40:48;5.70;25.00
20650;DHT22;10484;48.736;9.332;2024-03-02T00:43:42;5.70;24.60
20650;DHT22;10484;48.736;9.332;2024-03-02T00:46:18;5.70;24.10
20650;DHT22;10484;48.736;9.332;2024-03-02T00:49:01;5.70;24.50
20650;DHT22;10484;48.736;9.332;2024-03-02T00:51:29;5.70;24.80
20650;DHT22;10484;48.736;9.332;2024-03-02T00:53:58;5.60;25.50
20650;DHT22;10484;48.736;9.332;2024-03-02T00:56:24;5.60;25.90
20650;DHT22;10484;48.736;9.332;2024-03-02T00:58:50;5.60;26.70
20650;DHT22;10484;48.736;9.332;2024-03-02T01:01:16;5.60;27.20
20650;DHT22;10484;48.736;9.332;2024-03-02T01:03:42;5.50;28.50
20650;DHT22;10484;48.736;9.332;2024-03-02T01:06:08;5.50;29.40
20650;DHT22;10484;48.736;9.332;2024-03-02T01:08:35;5.50;29.40
20650;DHT22;10484;48.736;9.332;2024-03-02T01:11:01;5.50;33.40
20650;DHT22;10484;48.736;9.332;2024-03-02T01:13:27;5.50;29.50
20650;DHT22;10484;48.736;9.332;2024-03-02T01:15:53;5.50;28.90
20650;DHT22;10484;48.736;9.332;2024-03-02T01:18:19;5.50;28.20
20650;DHT22;10484;48.736;9.332;2024-03-02T01:20:44;5.50;28.60
20650;DHT22;10484;48.736;9.332;2024-03-02T01:23:11;5.50;31.80
20650;DHT22;10484;48.736;9.332;2024-03-02T01:25:36;5.50;28.50
20650;DHT22;10484;48.736;9.332;2024-03-02T01:28:02;5.50;29.60
20650;DHT22;10484;48.736;9.332;2024-03-02T01:30:28;5.40;29.50
20650;DHT22;10484;48.736;9.332;2024-03-02T01:32:53;5.40;29.80
20650;DHT22;10484;48.736;9.332;2024-03-02T01:35:19;5.40;29.80
20650;DHT22;10484;48.736;9.332;2024-03-02T01:37:44;5.40;30.00
20650;DHT22;10484;48.736;9.332;2024-03-02T01:40:10;5.40;29.50
20650;DHT22;10484;48.736;9.332;2024-03-02T01:42:37;5.40;29.80
20650;DHT22;10484;48.736;9.332;2024-03-02T01:45:07;5.30;30.00
20650;DHT22;10484;48.736;9.332;2024-03-02T01:47:33;5.30;30.10
20650;DHT22;10484;48.736;9.332;2024-03-02T01:49:59;5.30;30.30
20650;DHT22;10484;48.736;9.332;2024-03-02T01:52:25;5.30;30.60
20650;DHT22;10484;48.736;9.332;2024-03-02T01:54:51;5.20;31.30
20650;DHT22;10484;48.736;9.332;2024-03-02T01:57:17;5.20;32.40
20650;DHT22;10484;48.736;9.332;2024-03-02T01:59:42;5.20;32.50
20650;DHT22;10484;48.736;9.332;2024-03-02T02:02:08;5.20;32.90
20650;DHT22;10484;48.736;9.332;2024-03-02T02:04:33;5.20;32.90
20650;DHT22;10484;48.736;9.332;2024-03-02T02:06:59;5.10;32.90
20650;DHT22;10484;48.736;9.332;2024-03-02T02:09:25;5.10;33.00
20650;DHT22;10484;48.736;9.332;2024-03-02T02:11:51;5.10;32.90
20650;DHT22;10484;48.736;9.332;2024-03-02T02:14:17;5.10;33.10
20650;DHT22;10484;48.736;9.332;2024-03-02T02:16:43;5.10;32.80
20650;DHT22;10484;48.736;9.332;2024-03-02T02:19:08;5.10;33.00
20650;DHT22;10484;48.736;9.332;2024-03-02T02:21:35;5.00;32.70
20650;DHT22;10484;48.736;9.332;2024-03-02T02:24:00;5.00;32.70
20650;DHT22;10484;48.736;9.332;2024-03-02T02:26:28;5.00;32.70
20650;DHT22;10484;48.736;9.332;2024-03-02T02:28:54;5.00;32.50
20650;DHT22;10484;48.736;9.332;2024-03-02T02:31:19;4.90;32.40
20650;DHT22;10484;48.736;9.332;2024-03-02T02:33:45;4.90;32.00
20650;DHT22;10484;48.736;9.332;2024-03-02T02:36:10;4.90;31.80
20650;DHT22;10484;48.736;9.332;2024-03-02T02:38:41;4.90;31.40
20650;DHT22;10484;48.736;9.332;2024-03-02T02:41:08;4.90;31.30
20650;DHT22;10484;48.736;9.332;2024-03-02T02:43:34;4.90;31.00
20650;DHT22;10484;48.736;9.332;2024-03-02T02:45:59;4.80;31.00
20650;DHT22;10484;48.736;9.332;2024-03-02T02:48:25;4.80;31.00
20650;DHT22;10484;48.736;9.332;2024-03-02T02:50:50;4.80;31.00
20650;DHT22;10484;48.736;9.332;2024-03-02T02:53:16;4.80;30.30
20650;DHT22;10484;48.736;9.332;2024-03-02T02:55:42;4.80;29.90
20650;DHT22;10484;48.736;9.332;2024-03-02T02:58:09;4.80;29.10
20650;DHT22;10484;48.736;9.332;2024-03-02T03:00:34;4.70;28.50
20650;DHT22;10484;48.736;9.332;2024-03-02T03:03:02;4.70;27.50
20650;DHT22;10484;48.736;9.332;2024-03-02T03:05:28;4.70;27.00
20650;DHT22;10484;48.736;9.332;2024-03-02T03:07:54;4.60;26.40
20650;DHT22;10484;48.736;9.332;2024-03-02T03:10:19;4.60;26.10
20650;DHT22;10484;48.736;9.332;2024-03-02T03:12:47;4.60;25.60
20650;DHT22;10484;48.736;9.332;2024-03-02T03:15:13;4.50;24.70
20650;DHT22;10484;48.736;9.332;2024-03-02T03:17:40;4.50;24.40
20650;DHT22;10484;48.736;9.332;2024-03-02T03:20:06;4.50;24.70
20650;DHT22;10484;48.736;9.332;2024-03-02T03:22:35;4.50;25.20
20650;DHT22;10484;48.736;9.332;2024-03-02T03:25:01;4.50;25.70
20650;DHT22;10484;48.736;9.332;2024-03-02T03:27:27;4.40;26.20
20650;DHT22;10484;48.736;9.332;2024-03-02T03:29:52;4.50;26.60
20650;DHT22;10484;48.736;9.332;2024-03-02T03:32:18;4.50;27.40
20650;DHT22;10484;48.736;9.332;2024-03-02T03:34:43;4.40;27.30
20650;DHT22;10484;48.736;9.332;2024-03-02T03:37:09;4.40;27.70
20650;DHT22;10484;48.736;9.332;2024-03-02T03:39:35;4.40;28.30
20650;DHT22;10484;48.736;9.332;2024-03-02T03:42:01;4.40;28.00
20650;DHT22;10484;48.736;9.332;2024-03-02T03:44:27;4.40;27.80
20650;DHT22;10484;48.736;9.332;2024-03-02T03:46:52;4.40;27.80
20650;DHT22;10484;48.736;9.332;2024-03-02T03:49:18;4.30;27.40
20650;DHT22;10484;48.736;9.332;2024-03-02T03:51:43;4.30;26.90
20650;DHT22;10484;48.736;9.332;2024-03-02T03:54:09;4.30;25.90
20650;DHT22;10484;48.736;9.332;2024-03-02T03:56:36;4.30;25.90
20650;DHT22;10484;48.736;9.332;2024-03-02T03:59:02;4.20;25.50
20650;DHT22;10484;48.736;9.332;2024-03-02T04:01:27;4.20;25.30
20650;DHT22;10484;48.736;9.332;2024-03-02T04:03:53;4.20;24.40
20650;DHT22;10484;48.736;9.332;2024-03-02T04:06:19;4.20;23.60
20650;DHT22;10484;48.736;9.332;2024-03-02T04:08:45;4.10;23.10
20650;DHT22;10484;48.736;9.332;2024-03-02T04:11:10;4.10;22.60
20650;DHT22;10484;48.736;9.332;2024-03-02T04:13:36;4.10;22.10
20650;DHT22;10484;48.736;9.332;2024-03-02T04:16:01;4.10;21.80
20650;DHT22;10484;48.736;9.332;2024-03-02T04:18:29;4.00;21.70
20650;DHT22;10484;48.736;9.332;2024-03-02T04:20:54;4.00;21.70
20650;DHT22;10484;48.736;9.332;2024-03-02T04:23:20;4.00;21.60
20650;DHT22;10484;48.736;9.332;2024-03-02T04:25:45;4.00;21.20
20650;DHT22;10484;48.736;9.332;2024-03-02T04:28:11;4.00;21.20
20650;DHT22;10484;48.736;9.332;2024-03-02T04:30:37;3.90;21.30
20650;DHT22;10484;48.736;9.332;2024-03-02T04:33:03;3.90;21.20
20650;DHT22;10484;48.736;9.332;2024-03-02T04:35:34;3.90;21.20
20650;DHT22;10484;48.736;9.332;2024-03-02T04:37:59;3.80;20.90
20650;DHT22;10484;48.736;9.332;2024-03-02T04:40:25;3.80;21.30
20650;DHT22;10484;48.736;9.332;2024-03-02T04:42:50;3.80;21.20
20650;DHT22;10484;48.736;9.332;2024-03-02T04:45:16;3.80;20.80
20650;DHT22;10484;48.736;9.332;2024-03-02T04:47:41;3.80;20.50
20650;DHT22;10484;48.736;9.332;2024-03-02T04:50:07;3.80;20.30
20650;DHT22;10484;48.736;9.332;2024-03-02T04:52:33;3.70;19.90
20650;DHT22;10484;48.736;9.332;2024-03-02T04:54:58;3.70;19.90
20650;DHT22;10484;48.736;9.332;2024-03-02T04:58:00;3.70;19.60
20650;DHT22;10484;48.736;9.332;2024-03-02T05:00:26;3.60;19.60
20650;DHT22;10484;48.736;9.332;2024-03-02T05:02:51;3.60;19.70
20650;DHT22;10484;48.736;9.332;2024-03-02T05:05:17;3.60;20.00
20650;DHT22;10484;48.736;9.332;2024-03-02T05:07:43;3.60;20.10
20650;DHT22;10484;48.736;9.332;2024-03-02T05:10:10;3.60;20.30
20650;DHT22;10484;48.736;9.332;2024-03-02T05:12:35;3.50;20.30
20650;DHT22;10484;48.736;9.332;2024-03-02T05:15:07;3.50;20.40
20650;DHT22;10484;48.736;9.332;2024-03-02T05:17:33;3.50;20.50
20650;DHT22;10484;48.736;9.332;2024-03-02T05:19:59;3.50;20.10
20650;DHT22;10484;48.736;9.332;2024-03-02T05:22:24;3.50;20.10
20650;DHT22;10484;48.736;9.332;2024-03-02T05:24:50;3.40;20.10
20650;DHT22;10484;48.736;9.332;2024-03-02T05:27:16;3.40;20.10
20650;DHT22;10484;48.736;9.332;2024-03-02T05:29:41;3.40;20.40
20650;DHT22;10484;48.736;9.332;2024-03-02T05:32:07;3.40;20.60
20650;DHT22;10484;48.736;9.332;2024-03-02T05:34:32;3.40;20.60
20650;DHT22;10484;48.736;9.332;2024-03-02T05:37:01;3.40;20.70
20650;DHT22;10484;48.736;9.332;2024-03-02T05:39:26;3.30;20.80
20650;DHT22;10484;48.736;9.332;2024-03-02T05:41:52;3.30;21.40
20650;DHT22;10484;48.736;9.332;2024-03-02T05:44:17;3.30;21.70
20650;DHT22;10484;48.736;9.332;2024-03-02T05:46:44;3.30;21.80
20650;DHT22;10484;48.736;9.332;2024-03-02T05:49:09;3.20;21.70
20650;DHT22;10484;48.736;9.332;2024-03-02T05:51:35;3.20;21.80
20650;DHT22;10484;48.736;9.332;2024-03-02T05:54:01;3.20;22.10
20650;DHT22;10484;48.736;9.332;2024-03-02T05:56:27;3.20;21.90
20650;DHT22;10484;48.736;9.332;2024-03-02T05:58:52;3.20;22.00
20650;DHT22;10484;48.736;9.332;2024-03-02T06:01:36;3.20;22.00
20650;DHT22;10484;48.736;9.332;2024-03-02T06:04:02;3.20;22.00
20650;DHT22;10484;48.736;9.332;2024-03-02T06:06:28;3.10;22.10
20650;DHT22;10484;48.736;9.332;2024-03-02T06:08:53;3.10;22.40
20650;DHT22;10484;48.736;9.332;2024-03-02T06:11:19;3.10;22.50
20650;DHT22;10484;48.736;9.332;2024-03-02T06:13:45;3.10;22.50
20650;DHT22;10484;48.736;9.332;2024-03-02T06:16:11;3.10;22.60
20650;DHT22;10484;48.736;9.332;2024-03-02T06:18:37;3.00;22.00
20650;DHT22;10484;48.736;9.332;2024-03-02T06:21:03;3.10;22.30
20650;DHT22;10484;48.736;9.332;2024-03-02T06:23:28;3.00;22.60
20650;DHT22;10484;48.736;9.332;2024-03-02T06:25:54;3.00;23.20
20650;DHT22;10484;48.736;9.332;2024-03-02T06:28:19;3.00;23.50
20650;DHT22;10484;48.736;9.332;2024-03-02T06:30:46;3.00;23.40
20650;DHT22;10484;48.736;9.332;2024-03-02T06:33:12;2.90;23.30
20650;DHT22;10484;48.736;9.332;2024-03-02T06:35:37;2.90;23.20
20650;DHT22;10484;48.736;9.332;2024-03-02T06:38:03;2.90;23.40
20650;DHT22;10484;48.736;9.332;2024-03-02T06:40:29;2.90;23.70
20650;DHT22;10484;48.736;9.332;2024-03-02T06:42:54;2.90;24.20
20650;DHT22;10484;48.736;9.332;2024-03-02T06:45:20;2.90;24.50
20650;DHT22;10484;48.736;9.332;2024-03-02T06:47:46;2.90;25.20
20650;DHT22;10484;48.736;9.332;2024-03-02T06:50:11;2.90;25.90
20650;DHT22;10484;48.736;9.332;2024-03-02T06:52:37;2.90;26.40
20650;DHT22;10484;48.736;9.332;2024-03-02T06:55:03;2.90;27.50
20650;DHT22;10484;48.736;9.332;2024-03-02T06:57:29;2.90;28.40
20650;DHT22;10484;48.736;9.332;2024-03-02T06:59:55;2.90;29.50
20650;DHT22;10484;48.736;9.332;2024-03-02T07:02:26;2.80;30.00
20650;DHT22;10484;48.736;9.332;2024-03-02T07:04:53;2.90;30.80
20650;DHT22;10484;48.736;9.332;2024-03-02T07:07:18;2.90;31.20
20650;DHT22;10484;48.736;9.332;2024-03-02T07:09:44;2.90;31.40
20650;DHT22;10484;48.736;9.332;2024-03-02T07:12:10;2.90;31.40
20650;DHT22;10484;48.736;9.332;2024-03-02T07:14:35;3.00;31.60
20650;DHT22;10484;48.736;9.332;2024-03-02T07:17:20;3.00;31.60
20650;DHT22;10484;48.736;9.332;2024-03-02T07:19:45;3.00;31.50
20650;DHT22;10484;48.736;9.332;2024-03-02T07:22:11;3.00;31.60
20650;DHT22;10484;48.736;9.332;2024-03-02T07:24:41;3.00;31.60
20650;DHT22;10484;48.736;9.332;2024-03-02T07:27:08;3.00;31.50
20650;DHT22;10484;48.736;9.332;2024-03-02T07:29:34;3.00;31.70
20650;DHT22;10484;48.736;9.332;2024-03-02T07:31:59;3.10;31.70
20650;DHT22;10484;48.736;9.332;2024-03-02T07:34:25;3.10;31.60
20650;DHT22;10484;48.736;9.332;2024-03-02T07:36:51;3.20;31.90
20650;DHT22;10484;48.736;9.332;2024-03-02T07:39:16;3.20;31.70
20650;DHT22;10484;48.736;9.332;2024-03-02T07:41:42;3.20;31.70
20650;DHT22;10484;48.736;9.332;2024-03-02T07:44:08;3.30;31.80
20650;DHT22;10484;48.736;9.332;2024-03-02T07:46:33;3.40;31.90
20650;DHT22;10484;48.736;9.332;2024-03-02T07:48:59;3.50;32.10
20650;DHT22;10484;48.736;9.332;2024-03-02T07:51:25;3.50;33.10
20650;DHT22;10484;48.736;9.332;2024-03-02T07:53:50;3.60;38.30
20650;DHT22;10484;48.736;9.332;2024-03-02T07:56:16;3.70;42.30
20650;DHT22;10484;48.736;9.332;2024-03-02T07:58:48;3.80;46.30
20650;DHT22;10484;48.736;9.332;2024-03-02T08:01:14;3.80;50.80
20650;DHT22;10484;48.736;9.332;2024-03-02T08:03:40;3.90;54.30
20650;DHT22;10484;48.736;9.332;2024-03-02T08:06:06;4.00;58.00
20650;DHT22;10484;48.736;9.332;2024-03-02T08:08:32;4.00;59.70
20650;DHT22;10484;48.736;9.332;2024-03-02T08:10:57;4.00;63.30
20650;DHT22;10484;48.736;9.332;2024-03-02T08:13:23;4.10;66.30
20650;DHT22;10484;48.736;9.332;2024-03-02T08:15:49;4.10;68.20
20650;DHT22;10484;48.736;9.332;2024-03-02T08:18:14;4.10;71.80
20650;DHT22;10484;48.736;9.332;2024-03-02T08:20:40;4.20;75.00
20650;DHT22;10484;48.736;9.332;2024-03-02T08:23:06;4.30;75.00
20650;DHT22;10484;48.736;9.332;2024-03-02T08:25:33;4.30;75.70
20650;DHT22;10484;48.736;9.332;2024-03-02T08:27:59;4.30;77.40
20650;DHT22;10484;48.736;9.332;2024-03-02T08:30:24;4.40;79.70
20650;DHT22;10484;48.736;9.332;2024-03-02T08:32:50;4.50;81.90
20650;DHT22;10484;48.736;9.332;2024-03-02T08:35:15;4.50;85.40
20650;DHT22;10484;48.736;9.332;2024-03-02T08:37:42;4.60;88.30
20650;DHT22;10484;48.736;9.332;2024-03-02T08:40:09;4.60;90.90
20650;DHT22;10484;48.736;9.332;2024-03-02T08:42:37;4.60;93.00
20650;DHT22;10484;48.736;9.332;2024-03-02T08:45:02;4.70;95.70
20650;DHT22;10484;48.736;9.332;2024-03-02T08:47:28;4.80;98.70
20650;DHT22;10484;48.736;9.332;2024-03-02T08:49:53;4.90;99.90
20650;DHT22;10484;48.736;9.332;2024-03-02T08:52:19;4.90;99.90
20650;DHT22;10484;48.736;9.332;2024-03-02T08:54:45;5.00;99.90
20650;DHT22;10484;48.736;9.332;2024-03-02T08:57:10;5.10;99.90
20650;DHT22;10484;48.736;9.332;2024-03-02T08:59:36;5.20;99.90
20650;DHT22;10484;48.736;9.332;2024-03-02T09:02:02;5.30;99.90
20650;DHT22;10484;48.736;9.332;2024-03-02T09:04:28;5.40;99.80
20650;DHT22;10484;48.736;9.332;2024-03-02T09:06:54;5.60;99.60
20650;DHT22;10484;48.736;9.332;2024-03-02T09:09:19;5.70;97.60
20650;DHT22;10484;48.736;9.332;2024-03-02T09:11:46;5.90;95.50
20650;DHT22;10484;48.736;9.332;2024-03-02T09:14:12;6.00;93.50
20650;DHT22;10484;48.736;9.332;2024-03-02T09:16:37;6.10;91.60
20650;DHT22;10484;48.736;9.332;2024-03-02T09:19:03;6.20;89.20
20650;DHT22;10484;48.736;9.332;2024-03-02T09:21:29;6.30;85.10
20650;DHT22;10484;48.736;9.332;2024-03-02T09:23:55;6.40;80.40
20650;DHT22;10484;48.736;9.332;2024-03-02T09:26:22;6.60;76.40
20650;DHT22;10484;48.736;9.332;2024-03-02T09:28:47;6.60;71.00
20650;DHT22;10484;48.736;9.332;2024-03-02T09:31:13;6.80;65.90
20650;DHT22;10484;48.736;9.332;2024-03-02T09:33:39;6.90;60.00
20650;DHT22;10484;48.736;9.332;2024-03-02T09:36:05;7.10;53.10
20650;DHT22;10484;48.736;9.332;2024-03-02T09:38:32;7.20;48.80
20650;DHT22;10484;48.736;9.332;2024-03-02T09:41:00;7.30;49.00
20650;DHT22;10484;48.736;9.332;2024-03-02T09:43:26;7.40;38.00
20650;DHT22;10484;48.736;9.332;2024-03-02T09:45:52;7.60;35.40
20650;DHT22;10484;48.736;9.332;2024-03-02T09:48:18;7.70;35.50
20650;DHT22;10484;48.736;9.332;2024-03-02T09:50:46;7.80;35.40
20650;DHT22;10484;48.736;9.332;2024-03-02T09:53:12;7.90;35.50
20650;DHT22;10484;48.736;9.332;2024-03-02T09:55:37;8.00;35.60
20650;DHT22;10484;48.736;9.332;2024-03-02T09:58:04;8.10;35.70
20650;DHT22;10484;48.736;9.332;2024-03-02T10:00:29;8.10;35.50
20650;DHT22;10484;48.736;9.332;2024-03-02T10:02:55;8.30;35.40
20650;DHT22;10484;48.736;9.332;2024-03-02T10:05:27;8.50;34.80
20650;DHT22;10484;48.736;9.332;2024-03-02T10:08:02;8.60;33.30
20650;DHT22;10484;48.736;9.332;2024-03-02T10:10:41;8.70;31.10
20650;DHT22;10484;48.736;9.332;2024-03-02T10:13:09;8.80;27.80
20650;DHT22;10484;48.736;9.332;2024-03-02T10:15:36;8.90;24.30
20650;DHT22;10484;48.736;9.332;2024-03-02T10:18:12;9.00;22.70
20650;DHT22;10484;48.736;9.332;2024-03-02T10:20:39;9.20;21.20
20650;DHT22;10484;48.736;9.332;2024-03-02T10:23:13;9.40;19.30
20650;DHT22;10484;48.736;9.332;2024-03-02T10:25:39;9.40;18.70
20650;DHT22;10484;48.736;9.332;2024-03-02T10:28:05;9.50;18.60
20650;DHT22;10484;48.736;9.332;2024-03-02T10:30:31;9.60;16.70
20650;DHT22;10484;48.736;9.332;2024-03-02T10:32:57;9.80;15.20
20650;DHT22;10484;48.736;9.332;2024-03-02T10:35:23;10.00;11.40
20650;DHT22;10484;48.736;9.332;2024-03-02T10:37:49;10.00;10.10
20650;DHT22;10484;48.736;9.332;2024-03-02T10:40:15;10.10;8.90
20650;DHT22;10484;48.736;9.332;2024-03-02T10:42:42;10.20;8.70
20650;DHT22;10484;48.736;9.332;2024-03-02T10:45:09;10.20;7.90
20650;DHT22;10484;48.736;9.332;2024-03-02T10:47:38;10.30;6.40
20650;DHT22;10484;48.736;9.332;2024-03-02T10:50:07;10.40;5.90
20650;DHT22;10484;48.736;9.332;2024-03-02T10:52:39;10.50;5.30
20650;DHT22;10484;48.736;9.332;2024-03-02T10:55:07;10.60;4.30
20650;DHT22;10484;48.736;9.332;2024-03-02T10:57:55;10.70;3.20
20650;DHT22;10484;48.736;9.332;2024-03-02T11:00:26;10.70;2.40
20650;DHT22;10484;48.736;9.332;2024-03-02T11:03:05;10.80;1.70
20650;DHT22;10484;48.736;9.332;2024-03-02T11:05:36;10.90;1.20
20650;DHT22;10484;48.736;9.332;2024-03-02T11:08:08;11.00;1.00
20650;DHT22;10484;48.736;9.332;2024-03-02T11:10:57;11.20;1.00
20650;DHT22;10484;48.736;9.332;2024-03-02T11:13:32;11.30;1.00
20650;DHT22;10484;48.736;9.332;2024-03-02T11:16:45;11.30;1.00
20650;DHT22;10484;48.736;9.332;2024-03-02T11:19:12;11.40;1.00
20650;DHT22;10484;48.736;9.332;2024-03-02T11:21:38;11.50;1.00
20650;DHT22;10484;48.736;9.332;2024-03-02T11:26:49;11.60;1.00
20650;DHT22;10484;48.736;9.332;2024-03-02T11:32:13;11.80;1.00
20650;DHT22;10484;48.736;9.332;2024-03-02T11:34:41;12.00;1.00
20650;DHT22;10484;48.736;9.332;2024-03-02T11:37:10;12.20;1.00
20650;DHT22;10484;48.736;9.332;2024-03-02T11:39:38;12.40;1.00
20650;DHT22;10484;48.736;9.332;2024-03-02T11:42:06;12.40;1.00
20650;DHT22;10484;48.736;9.332;2024-03-02T11:44:34;12.40;1.00
20650;DHT22;10484;48.736;9.332;2024-03-02T11:47:01;12.50;1.00
20650;DHT22;10484;48.736;9.332;2024-03-02T11:49:43;12.60;1.00
20650;DHT22;10484;48.736;9.332;2024-03-02T11:52:11;12.70;1.00
20650;DHT22;10484;48.736;9.332;2024-03-02T11:54:39;12.70;1.00
20650;DHT22;10484;48.736;9.332;2024-03-02T11:57:07;12.80;1.00
20650;DHT22;10484;48.736;9.332;2024-03-02T11:59:33;12.80;1.00
20650;DHT22;10484;48.736;9.332;2024-03-02T12:01:59;12.90;1.00
20650;DHT22;10484;48.736;9.332;2024-03-02T12:04:25;13.00;1.00
20650;DHT22;10484;48.736;9.332;2024-03-02T12:06:55;13.10;1.00
20650;DHT22;10484;48.736;9.332;2024-03-02T12:09:22;13.10;1.00
20650;DHT22;10484;48.736;9.332;2024-03-02T12:11:47;13.20;1.00
20650;DHT22;10484;48.736;9.332;2024-03-02T12:14:13;13.40;1.00
20650;DHT22;10484;48.736;9.332;2024-03-02T12:16:39;13.60;1.00
20650;DHT22;10484;48.736;9.332;2024-03-02T12:19:05;13.90;1.00
20650;DHT22;10484;48.736;9.332;2024-03-02T12:21:31;13.80;1.00
20650;DHT22;10484;48.736;9.332;2024-03-02T12:23:57;13.90;1.00
20650;DHT22;10484;48.736;9.332;2024-03-02T12:26:23;14.10;1.00
20650;DHT22;10484;48.736;9.332;2024-03-02T12:28:49;14.10;1.00
20650;DHT22;10484;48.736;9.332;2024-03-02T12:31:15;14.10;1.00
20650;DHT22;10484;48.736;9.332;2024-03-02T12:33:41;14.10;1.00
20650;DHT22;10484;48.736;9.332;2024-03-02T12:36:10;14.20;1.00
20650;DHT22;10484;48.736;9.332;2024-03-02T12:38:37;14.30;1.00
20650;DHT22;10484;48.736;9.332;2024-03-02T12:41:03;14.30;1.00
20650;DHT22;10484;48.736;9.332;2024-03-02T12:43:30;14.20;1.00
20650;DHT22;10484;48.736;9.332;2024-03-02T12:45:57;14.40;1.00
20650;DHT22;10484;48.736;9.332;2024-03-02T12:48:23;14.50;1.00
20650;DHT22;10484;48.736;9.332;2024-03-02T12:50:49;14.60;1.00
20650;DHT22;10484;48.736;9.332;2024-03-02T12:53:15;14.80;1.00
20650;DHT22;10484;48.736;9.332;2024-03-02T12:55:42;14.80;1.00
20650;DHT22;10484;48.736;9.332;2024-03-02T12:58:07;14.80;1.00
20650;DHT22;10484;48.736;9.332;2024-03-02T13:00:33;14.80;1.00
20650;DHT22;10484;48.736;9.332;2024-03-02T13:03:00;14.80;1.00
20650;DHT22;10484;48.736;9.332;2024-03-02T13:05:32;14.90;1.00
20650;DHT22;10484;48.736;9.332;2024-03-02T13:07:58;15.00;1.00
20650;DHT22;10484;48.736;9.332;2024-03-02T13:10:25;15.10;1.00
20650;DHT22;10484;48.736;9.332;2024-03-02T13:12:50;15.20;1.00
20650;DHT22;10484;48.736;9.332;2024-03-02T13:15:16;15.20;1.00
20650;DHT22;10484;48.736;9.332;2024-03-02T13:17:42;15.20;1.00
20650;DHT22;10484;48.736;9.332;2024-03-02T13:20:07;15.30;1.00
20650;DHT22;10484;48.736;9.332;2024-03-02T13:22:35;15.30;1.00
20650;DHT22;10484;48.736;9.332;2024-03-02T13:25:01;15.40;1.00
20650;DHT22;10484;48.736;9.332;2024-03-02T13:27:30;15.50;1.00
20650;DHT22;10484;48.736;9.332;2024-03-02T13:29:56;15.50;1.00
20650;DHT22;10484;48.736;9.332;2024-03-02T13:32:22;15.50;1.00
20650;DHT22;10484;48.736;9.332;2024-03-02T13:34:49;15.50;1.00
20650;DHT22;10484;48.736;9.332;2024-03-02T13:37:15;15.60;1.00
20650;DHT22;10484;48.736;9.332;2024-03-02T13:39:40;15.60;1.00
20650;DHT22;10484;48.736;9.332;2024-03-02T13:42:11;15.70;1.00
20650;DHT22;10484;48.736;9.332;2024-03-02T13:44:39;15.80;1.00
20650;DHT22;10484;48.736;9.332;2024-03-02T13:47:05;15.80;1.00
20650;DHT22;10484;48.736;9.332;2024-03-02T13:49:31;15.80;1.00
20650;DHT22;10484;48.736;9.332;2024-03-02T13:52:03;15.80;1.00
20650;DHT22;10484;48.736;9.332;2024-03-02T13:54:30;15.90;1.00
20650;DHT22;10484;48.736;9.332;2024-03-02T13:56:56;16.00;1.00
20650;DHT22;10484;48.736;9.332;2024-03-02T13:59:26;15.90;1.00
20650;DHT22;10484;48.736;9.332;2024-03-02T14:01:52;16.00;1.00
20650;DHT22;10484;48.736;9.332;2024-03-02T14:04:17;16.00;1.00
20650;DHT22;10484;48.736;9.332;2024-03-02T14:06:43;16.00;1.00
20650;DHT22;10484;48.736;9.332;2024-03-02T14:09:09;16.00;1.00
20650;DHT22;10484;48.736;9.332;2024-03-02T14:11:35;16.00;1.00
20650;DHT22;10484;48.736;9.332;2024-03-02T14:14:01;16.10;1.00
20650;DHT22;10484;48.736;9.332;2024-03-02T14:16:27;16.10;1.00
20650;DHT22;10484;48.736;9.332;2024-03-02T14:18:53;16.10;1.00
20650;DHT22;10484;48.736;9.332;2024-03-02T14:21:18;16.10;1.00
20650;DHT22;10484;48.736;9.332;2024-03-02T14:23:44;16.20;1.00
20650;DHT22;10484;48.736;9.332;2024-03-02T14:26:09;16.20;1.00
20650;DHT22;10484;48.736;9.332;2024-03-02T14:28:35;16.10;1.00
20650;DHT22;10484;48.736;9.332;2024-03-02T14:31:00;16.10;1.00
20650;DHT22;10484;48.736;9.332;2024-03-02T14:33:27;16.10;1.00
20650;DHT22;10484;48.736;9.332;2024-03-02T14:35:53;16.10;1.00
20650;DHT22;10484;48.736;9.332;2024-03-02T14:38:19;16.10;1.00
20650;DHT22;10484;48.736;9.332;2024-03-02T14:40:45;16.10;1.00
20650;DHT22;10484;48.736;9.332;2024-03-02T14:43:10;16.10;1.00
20650;DHT22;10484;48.736;9.332;2024-03-02T14:45:36;16.10;1.00
20650;DHT22;10484;48.736;9.332;2024-03-02T14:48:02;16.20;1.00
20650;DHT22;10484;48.736;9.332;2024-03-02T14:50:29;16.30;1.00
20650;DHT22;10484;48.736;9.332;2024-03-02T14:52:54;16.30;1.00
20650;DHT22;10484;48.736;9.332;2024-03-02T14:55:23;16.40;1.00
20650;DHT22;10484;48.736;9.332;2024-03-02T14:57:49;16.40;1.00
20650;DHT22;10484;48.736;9.332;2024-03-02T15:00:15;16.40;1.00
20650;DHT22;10484;48.736;9.332;2024-03-02T15:02:41;16.30;1.00
20650;DHT22;10484;48.736;9.332;2024-03-02T15:05:07;16.30;1.00
20650;DHT22;10484;48.736;9.332;2024-03-02T15:07:33;16.30;1.00
20650;DHT22;10484;48.736;9.332;2024-03-02T15:09:58;16.20;1.00
20650;DHT22;10484;48.736;9.332;2024-03-02T15:12:24;16.10;1.00
20650;DHT22;10484;48.736;9.332;2024-03-02T15:14:50;16.10;1.00
20650;DHT22;10484;48.736;9.332;2024-03-02T15:17:16;16.10;1.00
20650;DHT22;10484;48.736;9.332;2024-03-02T15:19:43;16.10;1.00
20650;DHT22;10484;48.736;9.332;2024-03-02T15:22:09;16.10;1.00
20650;DHT22;10484;48.736;9.332;2024-03-02T15:24:34;16.00;1.00
20650;DHT22;10484;48.736;9.332;2024-03-02T15:27:00;16.00;1.00
20650;DHT22;10484;48.736;9.332;2024-03-02T15:29:30;15.90;1.00
20650;DHT22;10484;48.736;9.332;2024-03-02T15:31:57;15.90;1.00
20650;DHT22;10484;48.736;9.332;2024-03-02T15:34:22;15.80;1.00
20650;DHT22;10484;48.736;9.332;2024-03-02T15:36:49;15.80;1.00
20650;DHT22;10484;48.736;9.332;2024-03-02T15:39:14;15.80;1.00
20650;DHT22;10484;48.736;9.332;2024-03-02T15:41:40;15.80;1.00
20650;DHT22;10484;48.736;9.332;2024-03-02T15:44:08;15.70;1.00
20650;DHT22;10484;48.736;9.332;2024-03-02T15:46:34;15.70;1.00
20650;DHT22;10484;48.736;9.332;2024-03-02T15:48:59;15.60;1.00
20650;DHT22;10484;48.736;9.332;2024-03-02T15:51:28;15.60;1.00